Time;durP1;ratioP1;P1;durP2;ratioP2;P2;SDS_P1;SDS_P2;PMS_P1;PMS_P2;Temp;Humidity;BMP_temperature;BMP_pressure;BME280_temperature;BME280_humidity;BME280_pressure;Samples;Min_cycle;Max_cycle;Signal;HPM_P1;HPM_P2
2023/07/25 00:01:56;;;;;;;7.57;6.65;;;;;;;22.45;100.00;98261.44;5067696;28;20207;-76
2023/07/25 00:04:23;;;;;;;7.80;6.47;;;;;;;22.38;100.00;98259.25;5071266;28;20194;-76
2023/07/25 00:06:50;;;;;;;6.90;5.93;;;;;;;22.28;100.00;98253.38;5069861;28;20240;-76
2023/07/25 00:09:16;;;;;;;7.13;6.22;;;;;;;22.15;100.00;98257.13;5072806;28;20200;-76
2023/07/25 00:11:45;;;;;;;7.45;6.55;;;;;;;22.12;100.00;98263.22;5075958;28;20203;-76
2023/07/25 00:14:12;;;;;;;8.70;6.35;;;;;;;22.11;100.00;98265.19;5056808;28;20266;-75
2023/07/25 00:16:38;;;;;;;7.28;6.57;;;;;;;21.93;100.00;98263.63;5072048;28;20607;-75
2023/07/25 00:19:05;;;;;;;7.47;6.78;;;;;;;21.95;100.00;98272.28;5072275;28;20223;-75
2023/07/25 00:21:32;;;;;;;8.75;5.97;;;;;;;21.99;100.00;98267.78;5074137;28;20197;-75
2023/07/25 00:23:59;;;;;;;6.82;6.22;;;;;;;21.98;100.00;98257.97;5071744;28;20693;-76
2023/07/25 00:26:25;;;;;;;6.55;5.88;;;;;;;21.98;100.00;98260.72;5073915;28;20205;-76
2023/07/25 00:28:52;;;;;;;6.45;5.72;;;;;;;21.97;100.00;98256.41;5073651;28;20647;-76
2023/07/25 00:31:19;;;;;;;6.95;6.13;;;;;;;21.99;100.00;98254.13;5066280;28;20250;-76
2023/07/25 00:33:46;;;;;;;6.82;5.65;;;;;;;22.03;100.00;98255.09;5073692;28;20638;-76
2023/07/25 00:36:12;;;;;;;8.20;6.10;;;;;;;22.01;100.00;98248.38;5075459;28;20189;-76
2023/07/25 00:38:39;;;;;;;6.68;5.78;;;;;;;22.02;100.00;98258.16;5075079;28;20213;-76
2023/07/25 00:41:06;;;;;;;6.13;5.53;;;;;;;22.04;100.00;98253.16;5075090;28;20193;-76
2023/07/25 00:43:32;;;;;;;6.15;5.55;;;;;;;22.05;100.00;98261.03;5075246;28;20255;-76
2023/07/25 00:45:59;;;;;;;6.10;5.50;;;;;;;22.06;100.00;98268.09;5068618;28;20668;-75
2023/07/25 00:48:26;;;;;;;7.18;5.80;;;;;;;22.09;100.00;98261.97;5072878;28;20204;-75
2023/07/25 00:50:52;;;;;;;6.43;5.47;;;;;;;22.06;100.00;98261.81;5073558;28;20196;-75
2023/07/25 00:53:19;;;;;;;6.35;5.75;;;;;;;22.01;100.00;98249.16;5074781;28;20690;-75
2023/07/25 00:55:47;;;;;;;6.13;5.53;;;;;;;22.07;100.00;98263.44;5063624;28;20212;-77
2023/07/25 00:58:13;;;;;;;5.78;5.28;;;;;;;21.98;100.00;98271.63;5049670;28;20244;-75
2023/07/25 01:00:40;;;;;;;7.28;5.50;;;;;;;21.85;100.00;98261.69;5070489;28;20188;-75
2023/07/25 01:03:07;;;;;;;6.13;5.53;;;;;;;21.85;100.00;98264.44;5068905;28;20250;-76
2023/07/25 01:05:37;;;;;;;5.85;5.20;;;;;;;21.79;100.00;98263.78;5069072;28;20228;-75
2023/07/25 01:08:04;;;;;;;7.47;5.68;;;;;;;21.78;100.00;98253.25;5093671;28;20192;-75
2023/07/25 01:10:32;;;;;;;5.47;4.85;;;;;;;21.76;100.00;98250.81;5094614;28;20247;-75
2023/07/25 01:12:59;;;;;;;5.57;5.07;;;;;;;21.78;100.00;98258.69;5095131;28;20196;-75
2023/07/25 01:15:26;;;;;;;6.40;5.50;;;;;;;21.76;100.00;98253.56;5093499;28;20673;-75
2023/07/25 01:17:54;;;;;;;5.60;5.00;;;;;;;21.76;100.00;98247.28;5086898;28;20218;-75
2023/07/25 01:20:21;;;;;;;5.70;5.00;;;;;;;21.77;100.00;98243.44;5087067;28;20188;-75
2023/07/25 01:22:48;;;;;;;5.43;4.90;;;;;;;21.74;100.00;98253.06;5094809;28;20191;-75
2023/07/25 01:25:14;;;;;;;5.78;4.80;;;;;;;21.75;100.00;98254.66;5093486;28;20609;-75
2023/07/25 01:27:41;;;;;;;5.45;4.95;;;;;;;21.66;100.00;98255.81;5093413;28;20639;-75
2023/07/25 01:30:08;;;;;;;5.60;4.65;;;;;;;21.62;100.00;98263.84;5094310;28;20188;-75
2023/07/25 01:32:35;;;;;;;6.80;5.35;;;;;;;21.55;100.00;98266.28;5090445;28;20200;-75
2023/07/25 01:35:01;;;;;;;5.80;5.30;;;;;;;21.51;100.00;98268.84;5093280;28;20196;-75
2023/07/25 01:37:28;;;;;;;5.32;4.75;;;;;;;21.50;100.00;98275.44;5093351;28;20743;-75
2023/07/25 01:39:55;;;;;;;5.53;5.00;;;;;;;21.52;100.00;98269.63;5094821;28;20197;-75
2023/07/25 01:42:21;;;;;;;5.80;5.25;;;;;;;21.51;100.00;98274.28;5092937;28;20213;-75
2023/07/25 01:44:48;;;;;;;6.30;4.95;;;;;;;21.51;100.00;98262.59;5093687;28;20220;-78
2023/07/25 01:47:15;;;;;;;5.43;4.93;;;;;;;21.52;100.00;98272.38;5091817;28;20732;-75
2023/07/25 01:49:42;;;;;;;5.70;5.20;;;;;;;21.51;100.00;98268.03;5093873;28;20199;-76
2023/07/25 01:52:08;;;;;;;8.25;5.20;;;;;;;21.46;100.00;98268.22;5090953;28;20666;-75
2023/07/25 01:54:35;;;;;;;5.68;4.63;;;;;;;21.39;100.00;98262.47;5089726;28;20257;-76
2023/07/25 01:57:02;;;;;;;4.82;4.32;;;;;;;21.36;100.00;98266.63;5090912;28;20199;-76
2023/07/25 01:59:29;;;;;;;5.20;4.70;;;;;;;21.37;100.00;98270.16;5090052;28;20200;-75
2023/07/25 02:01:55;;;;;;;5.53;5.03;;;;;;;21.33;100.00;98280.88;5091042;28;20205;-75
2023/07/25 02:04:22;;;;;;;5.85;4.95;;;;;;;21.32;100.00;98279.28;5089763;28;20190;-76
2023/07/25 02:06:49;;;;;;;6.30;4.90;;;;;;;21.28;100.00;98280.25;5078342;28;20230;-75
2023/07/25 02:09:16;;;;;;;5.43;4.88;;;;;;;21.22;100.00;98284.28;5067960;28;20250;-75
2023/07/25 02:11:42;;;;;;;5.47;4.82;;;;;;;21.24;100.00;98277.38;5055837;28;20255;-75
2023/07/25 02:14:09;;;;;;;5.28;4.70;;;;;;;21.19;100.00;98265.84;5052474;28;20197;-76
2023/07/25 02:16:36;;;;;;;7.20;4.72;;;;;;;21.15;100.00;98267.59;5055470;28;20281;-75
2023/07/25 02:19:03;;;;;;;8.57;5.20;;;;;;;21.13;100.00;98258.94;5056588;28;20229;-75
2023/07/25 02:21:30;;;;;;;5.28;4.38;;;;;;;21.09;100.00;98236.97;5059932;28;20204;-76
2023/07/25 02:23:57;;;;;;;5.15;4.65;;;;;;;21.02;100.00;98225.78;5073360;28;20189;-76
2023/07/25 02:26:24;;;;;;;5.10;4.60;;;;;;;21.00;100.00;98200.78;5070681;28;20617;-75
2023/07/25 02:28:51;;;;;;;5.50;5.00;;;;;;;20.85;100.00;98198.56;5073361;28;20346;-75
2023/07/25 02:31:18;;;;;;;4.88;4.47;;;;;;;20.78;100.00;98192.78;5066572;28;20225;-75
2023/07/25 02:33:45;;;;;;;5.38;3.95;;;;;;;20.63;100.00;98178.53;5072572;28;20238;-77
2023/07/25 02:36:11;;;;;;;4.47;4.05;;;;;;;20.59;100.00;98180.31;5073737;28;20749;-75
2023/07/25 02:38:39;;;;;;;4.95;4.20;;;;;;;20.57;100.00;98179.84;5073185;28;20211;-76
2023/07/25 02:41:05;;;;;;;4.45;3.70;;;;;;;20.54;100.00;98201.44;5072106;28;20192;-74
2023/07/25 02:43:32;;;;;;;4.85;3.83;;;;;;;20.61;100.00;98201.78;5069515;28;20213;-75
2023/07/25 02:45:59;;;;;;;4.27;3.57;;;;;;;20.61;100.00;98201.78;5051929;28;20208;-74
2023/07/25 02:48:26;;;;;;;4.22;3.83;;;;;;;20.60;100.00;98192.81;5072148;28;20216;-75
2023/07/25 02:50:52;;;;;;;4.00;3.60;;;;;;;20.77;100.00;98194.72;5055776;28;20208;-76
2023/07/25 02:53:19;;;;;;;3.53;3.22;;;;;;;20.85;100.00;98190.41;5070212;28;20188;-75
2023/07/25 02:55:45;;;;;;;3.67;3.20;;;;;;;21.06;100.00;98197.59;5072408;28;20229;-75
2023/07/25 02:58:15;;;;;;;3.33;3.00;;;;;;;21.14;100.00;98193.28;5054034;28;20262;-75
2023/07/25 03:00:42;;;;;;;3.30;2.90;;;;;;;21.18;100.00;98199.69;5071839;28;20577;-75
2023/07/25 03:03:08;;;;;;;3.50;2.70;;;;;;;21.39;100.00;98208.78;5072461;28;20191;-75
2023/07/25 03:05:35;;;;;;;3.43;3.07;;;;;;;21.73;100.00;98209.81;5071726;28;20568;-76
2023/07/25 03:08:02;;;;;;;3.63;2.80;;;;;;;21.71;100.00;98220.22;5072554;28;20663;-74
2023/07/25 03:10:29;;;;;;;2.70;2.43;;;;;;;21.93;100.00;98214.53;5072391;28;20528;-75
2023/07/25 03:12:56;;;;;;;2.75;2.55;;;;;;;22.02;100.00;98226.22;5062226;28;20204;-74
2023/07/25 03:15:22;;;;;;;3.27;2.43;;;;;;;22.10;100.00;98225.38;5071083;28;20196;-75
2023/07/25 03:17:49;;;;;;;2.75;2.47;;;;;;;22.15;100.00;98238.03;5048730;28;20767;-75
2023/07/25 03:20:16;;;;;;;2.67;2.30;;;;;;;21.97;100.00;98225.63;5071878;28;20273;-75
2023/07/25 03:22:43;;;;;;;2.87;2.57;;;;;;;22.13;100.00;98227.44;5072131;28;20200;-75
2023/07/25 03:25:10;;;;;;;3.40;2.30;;;;;;;21.99;100.00;98229.59;5071957;28;20230;-75
2023/07/25 03:27:36;;;;;;;2.47;2.28;;;;;;;21.89;100.00;98244.34;5071805;28;20220;-75
2023/07/25 03:30:04;;;;;;;2.58;2.22;;;;;;;22.16;100.00;98247.81;5070481;28;20567;-75
2023/07/25 03:32:31;;;;;;;2.80;2.60;;;;;;;22.30;100.00;98253.84;5072001;28;20203;-75
2023/07/25 03:34:58;;;;;;;2.95;2.65;;;;;;;22.20;100.00;98257.75;5071719;28;20610;-76
2023/07/25 03:37:24;;;;;;;2.75;2.53;;;;;;;22.16;100.00;98258.72;5070131;28;20562;-75
2023/07/25 03:39:51;;;;;;;3.20;2.42;;;;;;;22.07;100.00;98250.56;5066023;28;20270;-75
2023/07/25 03:42:18;;;;;;;3.55;2.78;;;;;;;22.10;100.00;98249.13;5066065;28;20215;-75
2023/07/25 03:44:45;;;;;;;2.72;2.47;;;;;;;22.08;100.00;98230.34;5045888;28;20208;-75
2023/07/25 03:47:11;;;;;;;2.47;2.22;;;;;;;22.07;100.00;98236.16;5060795;28;20186;-74
2023/07/25 03:49:38;;;;;;;2.83;2.58;;;;;;;22.22;100.00;98241.03;5066312;28;20190;-74
2023/07/25 03:52:05;;;;;;;2.60;2.40;;;;;;;22.14;100.00;98230.97;5066562;28;20197;-75
2023/07/25 03:54:32;;;;;;;2.63;2.42;;;;;;;22.15;100.00;98227.94;5068509;28;20198;-75
2023/07/25 03:56:58;;;;;;;3.40;2.70;;;;;;;22.31;100.00;98228.94;5056490;28;20205;-75
2023/07/25 03:59:25;;;;;;;3.75;2.78;;;;;;;22.26;100.00;98217.41;5068670;28;20220;-76
2023/07/25 04:01:52;;;;;;;3.60;2.53;;;;;;;22.22;100.00;98200.91;5045435;28;20251;-75
2023/07/25 04:04:18;;;;;;;8.07;2.60;;;;;;;22.28;100.00;98201.53;5048012;28;20284;-75
2023/07/25 04:06:45;;;;;;;3.75;2.47;;;;;;;22.69;100.00;98214.41;5065749;28;20225;-74
2023/07/25 04:09:12;;;;;;;10.55;3.08;;;;;;;24.11;100.00;98199.16;5044823;28;20209;-75
2023/07/25 04:11:39;;;;;;;9.20;3.03;;;;;;;25.21;100.00;98202.47;5069617;28;20694;-75
2023/07/25 04:14:06;;;;;;;4.15;2.42;;;;;;;25.89;100.00;98188.63;5071696;28;20655;-75
2023/07/25 04:16:32;;;;;;;2.53;2.33;;;;;;;26.17;100.00;98194.78;5064766;28;20229;-76
2023/07/25 04:18:59;;;;;;;3.88;2.88;;;;;;;26.82;100.00;98188.78;5069555;28;20602;-75
2023/07/25 04:21:26;;;;;;;4.07;2.60;;;;;;;27.30;100.00;98193.69;5071559;28;20688;-75
2023/07/25 04:23:53;;;;;;;4.15;2.60;;;;;;;27.83;100.00;98204.91;5071865;28;20195;-76
2023/07/25 04:26:19;;;;;;;2.72;2.45;;;;;;;28.19;97.57;98214.56;5061619;28;20249;-75
2023/07/25 04:28:48;;;;;;;3.15;2.80;;;;;;;26.97;100.00;98223.69;5071509;28;20202;-74
2023/07/25 04:31:15;;;;;;;3.95;2.40;;;;;;;25.93;100.00;98227.91;5071133;28;20296;-75
2023/07/25 04:33:42;;;;;;;3.60;2.65;;;;;;;24.94;100.00;98230.66;5069697;28;20189;-75
2023/07/25 04:36:09;;;;;;;4.32;2.92;;;;;;;24.53;100.00;98221.63;5069557;28;20201;-75
2023/07/25 04:38:36;;;;;;;5.95;2.88;;;;;;;24.24;100.00;98223.81;5055515;28;20217;-75
2023/07/25 04:41:03;;;;;;;3.22;2.72;;;;;;;24.16;100.00;98233.72;5066479;28;20186;-74
2023/07/25 04:43:29;;;;;;;3.42;2.80;;;;;;;24.19;100.00;98245.91;5060308;28;20196;-76
2023/07/25 04:45:56;;;;;;;3.97;2.50;;;;;;;24.28;100.00;98246.59;5063544;28;20192;-76
2023/07/25 04:48:23;;;;;;;2.75;2.53;;;;;;;24.44;100.00;98242.84;5061461;28;20200;-75
2023/07/25 04:50:50;;;;;;;3.65;2.78;;;;;;;24.71;100.00;98251.47;5050012;28;20201;-78
2023/07/25 04:53:16;;;;;;;3.65;3.10;;;;;;;24.80;100.00;98255.69;5048086;28;20210;-76
2023/07/25 04:55:43;;;;;;;4.50;2.72;;;;;;;24.76;100.00;98252.03;5072752;28;20248;-76
2023/07/25 04:58:10;;;;;;;7.95;2.70;;;;;;;24.75;100.00;98252.38;5056940;28;20221;-76
2023/07/25 05:00:36;;;;;;;7.22;3.45;;;;;;;24.72;100.00;98256.63;5074620;28;20196;-75
2023/07/25 05:03:03;;;;;;;6.40;2.78;;;;;;;24.58;100.00;98253.44;5053480;28;20458;-76
2023/07/25 05:05:30;;;;;;;11.65;3.70;;;;;;;24.59;100.00;98251.50;5070149;28;20240;-76
2023/07/25 05:07:56;;;;;;;4.65;2.85;;;;;;;24.56;100.00;98264.72;5071222;28;20619;-76
2023/07/25 05:10:23;;;;;;;5.00;2.60;;;;;;;24.49;100.00;98261.78;5072584;28;20572;-75
2023/07/25 05:12:50;;;;;;;3.22;2.80;;;;;;;24.52;100.00;98269.28;5073256;28;20196;-75
2023/07/25 05:15:16;;;;;;;4.95;3.00;;;;;;;24.54;100.00;98272.47;5071665;28;20200;-76
2023/07/25 05:17:43;;;;;;;3.80;2.80;;;;;;;24.60;100.00;98266.75;5073535;28;20257;-75
2023/07/25 05:20:10;;;;;;;2.90;2.67;;;;;;;24.43;100.00;98251.41;5069062;28;20196;-76
2023/07/25 05:22:37;;;;;;;2.88;2.67;;;;;;;24.33;100.00;98251.84;5074553;28;20238;-76
2023/07/25 05:25:04;;;;;;;3.10;2.80;;;;;;;24.35;100.00;98247.66;5074369;28;20192;-76
2023/07/25 05:27:30;;;;;;;3.35;3.05;;;;;;;24.19;100.00;98244.00;5074386;28;20585;-78
2023/07/25 05:29:57;;;;;;;3.63;2.78;;;;;;;24.09;100.00;98236.19;5072968;28;20230;-76
2023/07/25 05:32:24;;;;;;;3.45;2.53;;;;;;;24.22;100.00;98226.06;5071344;28;20255;-76
2023/07/25 05:34:51;;;;;;;2.90;2.70;;;;;;;24.21;100.00;98208.09;5072441;28;20670;-75
2023/07/25 05:37:18;;;;;;;3.40;2.67;;;;;;;24.28;100.00;98205.56;5072511;28;20215;-77
2023/07/25 05:39:45;;;;;;;3.30;2.90;;;;;;;24.33;100.00;98197.91;5071707;28;20225;-77
2023/07/25 05:42:11;;;;;;;4.05;2.83;;;;;;;24.41;100.00;98213.41;5073855;28;20593;-76
2023/07/25 05:44:38;;;;;;;2.85;2.63;;;;;;;24.24;100.00;98205.44;5072341;28;20185;-76
2023/07/25 05:47:05;;;;;;;4.10;3.05;;;;;;;24.19;100.00;98207.63;5072818;28;20208;-77
2023/07/25 05:49:32;;;;;;;3.47;2.50;;;;;;;24.27;100.00;98206.69;5073628;28;20663;-76
2023/07/25 05:51:58;;;;;;;3.15;2.85;;;;;;;23.97;100.00;98212.38;5073945;28;20673;-76
2023/07/25 05:54:25;;;;;;;3.05;2.75;;;;;;;23.87;100.00;98217.50;5070734;28;20287;-77
2023/07/25 05:56:52;;;;;;;2.95;2.70;;;;;;;23.74;100.00;98207.69;5073980;28;20199;-76
2023/07/25 05:59:20;;;;;;;5.00;2.92;;;;;;;23.52;100.00;98195.22;5073992;28;20213;-76
2023/07/25 06:01:47;;;;;;;3.50;3.03;;;;;;;23.32;100.00;98179.66;5073969;28;20207;-77
2023/07/25 06:04:15;;;;;;;3.72;2.95;;;;;;;23.32;100.00;98172.28;5071097;28;20231;-77
2023/07/25 06:06:42;;;;;;;4.78;2.80;;;;;;;23.28;100.00;98190.47;5070834;28;20711;-76
2023/07/25 06:09:08;;;;;;;5.45;2.70;;;;;;;23.03;100.00;98202.44;5073813;28;20197;-76
2023/07/25 06:11:35;;;;;;;3.42;2.80;;;;;;;22.90;100.00;98222.66;5073586;28;20197;-77
2023/07/25 06:14:02;;;;;;;4.60;2.75;;;;;;;22.74;100.00;98225.16;5073601;28;20194;-77
2023/07/25 06:16:29;;;;;;;6.60;3.08;;;;;;;22.43;100.00;98214.59;5074106;28;20250;-76
2023/07/25 06:18:56;;;;;;;4.20;3.00;;;;;;;22.45;100.00;98215.06;5073312;28;20217;-77
2023/07/25 06:21:22;;;;;;;3.88;2.70;;;;;;;22.27;100.00;98238.13;5073197;28;20198;-77
2023/07/25 06:23:49;;;;;;;3.33;2.65;;;;;;;22.10;100.00;98252.66;5073304;28;20200;-77
2023/07/25 06:26:16;;;;;;;4.47;2.92;;;;;;;22.14;100.00;98250.88;5071580;28;20220;-76
2023/07/25 06:28:44;;;;;;;6.03;3.20;;;;;;;21.95;100.00;98251.28;5064112;28;20661;-77
2023/07/25 06:31:10;;;;;;;4.10;2.65;;;;;;;21.88;100.00;98253.66;5066136;28;20547;-76
2023/07/25 06:33:37;;;;;;;4.18;3.38;;;;;;;21.69;100.00;98263.38;5070753;28;20203;-77
2023/07/25 06:36:04;;;;;;;4.65;3.00;;;;;;;21.61;100.00;98253.25;5071914;28;20611;-76
2023/07/25 06:38:31;;;;;;;3.25;2.97;;;;;;;21.51;100.00;98229.88;5065564;28;20235;-77
2023/07/25 06:40:57;;;;;;;5.78;3.15;;;;;;;21.30;100.00;98234.44;5068252;28;20219;-76
2023/07/25 06:43:24;;;;;;;4.05;3.00;;;;;;;21.11;100.00;98232.03;5069054;28;20207;-76
2023/07/25 06:45:51;;;;;;;5.63;3.60;;;;;;;20.77;100.00;98234.72;5055218;28;20193;-76
2023/07/25 06:48:18;;;;;;;6.40;3.57;;;;;;;20.50;100.00;98258.41;5065799;28;20543;-75
2023/07/25 06:50:45;;;;;;;4.93;3.55;;;;;;;20.40;100.00;98260.59;5070823;28;20397;-76
2023/07/25 06:53:12;;;;;;;5.77;3.63;;;;;;;20.22;100.00;98259.72;5071244;28;20189;-76
2023/07/25 06:55:39;;;;;;;4.13;3.40;;;;;;;20.14;100.00;98258.59;5071761;28;20207;-76
2023/07/25 06:58:05;;;;;;;6.77;3.93;;;;;;;20.12;100.00;98236.34;5067647;28;20267;-77
2023/07/25 07:00:37;;;;;;;5.40;3.73;;;;;;;19.81;100.00;98207.63;5071017;28;20222;-76
2023/07/25 07:03:05;;;;;;;5.80;4.17;;;;;;;19.69;100.00;98224.53;5072796;28;20206;-75
2023/07/25 07:05:32;;;;;;;4.73;4.23;;;;;;;19.53;100.00;98264.06;5071906;28;20322;-75
2023/07/25 07:08:03;;;;;;;4.53;3.80;;;;;;;19.55;100.00;98305.31;5047209;28;20198;-77
2023/07/25 07:10:32;;;;;;;6.77;4.13;;;;;;;19.57;100.00;98322.88;5072409;28;20635;-77
2023/07/25 07:12:59;;;;;;;4.23;3.80;;;;;;;19.50;100.00;98321.72;5072238;28;20671;-77
2023/07/25 07:15:26;;;;;;;4.53;4.13;;;;;;;19.47;100.00;98314.97;5072231;28;20190;-77
2023/07/25 07:17:53;;;;;;;5.33;4.37;;;;;;;19.47;100.00;98314.97;5071354;28;20278;-76
2023/07/25 07:20:20;;;;;;;6.97;4.40;;;;;;;19.46;100.00;98304.41;5058663;28;20630;-77
2023/07/25 07:22:47;;;;;;;4.67;3.77;;;;;;;19.46;100.00;98318.81;5070297;28;20188;-77
2023/07/25 07:25:14;;;;;;;4.77;3.87;;;;;;;19.39;100.00;98310.28;5071412;28;20655;-77
2023/07/25 07:27:41;;;;;;;5.90;4.43;;;;;;;19.35;100.00;98320.16;5070073;28;20221;-78
2023/07/25 07:30:07;;;;;;;7.63;4.33;;;;;;;19.35;100.00;98320.16;5071473;28;20659;-77
2023/07/25 07:32:34;;;;;;;6.13;4.30;;;;;;;19.39;100.00;98325.75;5070576;28;20554;-77
2023/07/25 07:35:01;;;;;;;4.63;3.97;;;;;;;19.40;100.00;98319.22;5069577;28;20669;-78
2023/07/25 07:37:28;;;;;;;4.87;3.70;;;;;;;19.45;100.00;98319.13;5053979;28;20256;-76
2023/07/25 07:39:56;;;;;;;5.10;4.30;;;;;;;19.33;100.00;98303.34;5069072;28;20217;-77
2023/07/25 07:42:23;;;;;;;5.00;4.40;;;;;;;19.33;100.00;98316.94;5071508;28;20192;-77
2023/07/25 07:44:49;;;;;;;8.53;4.60;;;;;;;19.31;100.00;98319.16;5070062;28;20665;-77
2023/07/25 07:47:16;;;;;;;5.03;4.17;;;;;;;19.32;100.00;98316.13;5069228;28;20204;-77
2023/07/25 07:49:43;;;;;;;4.53;4.10;;;;;;;19.34;100.00;98327.50;5053540;28;20215;-78
2023/07/25 07:52:09;;;;;;;4.20;3.80;;;;;;;19.39;100.00;98326.56;5071708;28;20610;-77
2023/07/25 07:54:51;;;;;;;4.20;3.70;;;;;;;19.40;100.00;98320.03;5069867;28;20205;-77
2023/07/25 07:57:18;;;;;;;4.20;3.73;;;;;;;19.43;100.00;98322.13;5071603;28;20189;-78
2023/07/25 07:59:44;;;;;;;5.30;3.67;;;;;;;19.39;100.00;98325.75;5071776;28;20218;-77
2023/07/25 08:02:11;;;;;;;4.87;3.77;;;;;;;19.40;100.00;98316.50;5071431;28;20202;-77
2023/07/25 08:04:38;;;;;;;4.40;3.50;;;;;;;19.46;100.00;98320.72;5071402;28;20667;-78
2023/07/25 08:07:05;;;;;;;6.10;3.97;;;;;;;19.47;100.00;98311.47;5066770;28;20238;-77
2023/07/25 08:09:31;;;;;;;5.13;3.73;;;;;;;19.40;100.00;98327.38;5067432;28;20221;-77
2023/07/25 08:11:58;;;;;;;3.97;3.57;;;;;;;19.43;100.00;98345.75;5076819;28;20185;-78
2023/07/25 08:14:25;;;;;;;4.83;3.90;;;;;;;19.46;100.00;98350.59;5071588;28;20194;-78
2023/07/25 08:16:52;;;;;;;5.43;3.87;;;;;;;19.46;100.00;98356.03;5077160;28;20191;-77
2023/07/25 08:19:18;;;;;;;4.17;3.70;;;;;;;19.43;100.00;98354.72;5070190;28;20209;-77
2023/07/25 08:21:45;;;;;;;5.87;3.93;;;;;;;19.38;100.00;98362.97;5064914;28;20281;-75
2023/07/25 08:24:12;;;;;;;6.67;3.83;;;;;;;19.42;100.00;98346.88;5067853;28;20315;-76
2023/07/25 08:26:38;;;;;;;4.17;3.37;;;;;;;19.47;100.00;98350.28;5068305;28;20221;-77
2023/07/25 08:29:05;;;;;;;5.20;3.67;;;;;;;19.34;100.00;98348.41;5071254;28;20225;-76
2023/07/25 08:31:32;;;;;;;11.83;3.47;;;;;;;19.27;100.00;98345.34;5069894;28;20199;-77
2023/07/25 08:33:59;;;;;;;4.47;3.10;;;;;;;19.16;100.00;98341.22;5066584;28;20196;-77
2023/07/25 08:36:25;;;;;;;4.30;3.50;;;;;;;19.13;100.00;98339.13;5066055;28;20270;-77
2023/07/25 08:38:52;;;;;;;3.53;3.00;;;;;;;19.06;100.00;98342.25;5070542;28;20199;-76
2023/07/25 08:41:24;;;;;;;3.20;2.90;;;;;;;18.97;100.00;98340.56;5070616;28;20220;-79
2023/07/25 08:43:52;;;;;;;3.43;3.10;;;;;;;18.95;100.00;98308.31;5070689;28;20203;-77
2023/07/25 08:46:20;;;;;;;4.07;2.77;;;;;;;18.83;100.00;98278.19;5074947;28;20207;-78
2023/07/25 08:48:47;;;;;;;4.23;2.97;;;;;;;18.76;100.00;98250.66;5067233;28;20199;-79
2023/07/25 08:51:20;;;;;;;4.50;3.17;;;;;;;18.69;100.00;98232.13;5061895;28;20262;-79
2023/07/25 08:53:57;;;;;;;3.73;3.20;;;;;;;18.64;100.00;98190.72;5045667;28;20650;-79
2023/07/25 08:56:25;;;;;;;4.37;3.13;;;;;;;18.57;100.00;98138.84;5073992;28;20210;-78
2023/07/25 08:58:52;;;;;;;3.70;3.00;;;;;;;18.59;100.00;98057.94;5071934;28;20194;-78
2023/07/25 09:01:19;;;;;;;6.00;3.27;;;;;;;18.51;100.00;97978.13;5045749;28;20260;-79
2023/07/25 09:03:47;;;;;;;3.33;2.53;;;;;;;18.64;100.00;97930.34;5071836;28;20214;-76
2023/07/25 09:06:14;;;;;;;4.80;2.90;;;;;;;18.72;100.00;98030.75;5067628;28;20315;-79
2023/07/25 09:08:41;;;;;;;4.37;3.13;;;;;;;18.78;100.00;98138.03;5089535;28;20195;-77
2023/07/25 09:11:09;;;;;;;4.53;2.97;;;;;;;18.98;100.00;98193.72;5094707;28;20215;-77
2023/07/25 09:13:39;;;;;;;3.03;2.60;;;;;;;19.08;100.00;98201.63;5090879;28;20184;-78
2023/07/25 09:16:06;;;;;;;3.57;2.70;;;;;;;19.12;100.00;98172.75;5086914;28;20193;-79
2023/07/25 09:18:33;;;;;;;3.03;2.70;;;;;;;19.25;100.00;98173.75;5094966;28;20219;-75
2023/07/25 09:21:00;;;;;;;4.27;2.73;;;;;;;19.72;100.00;98183.94;5093057;28;20224;-75
2023/07/25 09:23:27;;;;;;;3.23;2.70;;;;;;;20.23;100.00;98194.16;5094912;28;20253;-77
2023/07/25 09:26:10;;;;;;;3.77;2.90;;;;;;;20.96;100.00;98202.56;5094788;28;20203;-77
2023/07/25 09:28:48;;;;;;;3.40;2.80;;;;;;;21.44;100.00;98213.25;5094612;28;20252;-77
2023/07/25 09:31:15;;;;;;;4.40;2.93;;;;;;;21.70;100.00;98224.88;5089815;28;20186;-76
2023/07/25 09:33:46;;;;;;;3.10;2.60;;;;;;;21.62;100.00;98238.53;5089688;28;20199;-76
2023/07/25 09:36:13;;;;;;;2.77;2.57;;;;;;;21.52;100.00;98248.66;5089482;28;20195;-77
2023/07/25 09:38:55;;;;;;;3.17;2.87;;;;;;;21.53;100.00;98246.72;5094554;28;20200;-77
2023/07/25 09:41:23;;;;;;;2.70;2.50;;;;;;;21.75;100.00;98249.22;5090214;28;20191;-77
2023/07/25 09:43:51;;;;;;;2.92;2.72;;;;;;;22.12;100.00;98236.75;5093150;28;20189;-77
2023/07/25 09:46:18;;;;;;;3.28;2.50;;;;;;;22.70;100.00;98241.41;5070427;28;20575;-77
2023/07/25 09:48:47;;;;;;;2.85;2.38;;;;;;;23.28;100.00;98229.50;5093192;28;20192;-77
2023/07/25 09:51:14;;;;;;;2.63;2.42;;;;;;;23.24;100.00;98235.97;5094528;28;20251;-76
2023/07/25 09:53:49;;;;;;;3.30;2.30;;;;;;;23.05;100.00;98241.16;5094012;28;20184;-77
2023/07/25 09:56:16;;;;;;;2.88;2.67;;;;;;;22.89;100.00;98240.16;5094127;28;20204;-77
2023/07/25 09:58:43;;;;;;;2.88;2.17;;;;;;;22.96;100.00;98224.81;5094487;28;20216;-78
2023/07/25 10:01:31;;;;;;;2.80;2.35;;;;;;;22.67;100.00;98233.06;5093931;28;20273;-77
2023/07/25 10:03:58;;;;;;;2.65;2.25;;;;;;;22.35;100.00;98240.00;5092451;28;20204;-77
2023/07/25 10:06:25;;;;;;;3.10;2.47;;;;;;;21.99;100.00;98237.78;5098117;28;20224;-77
2023/07/25 10:08:53;;;;;;;5.18;2.20;;;;;;;21.65;100.00;98227.00;5088966;28;20197;-77
2023/07/25 10:11:22;;;;;;;2.55;2.35;;;;;;;21.40;100.00;98224.00;5091617;28;20686;-77
2023/07/25 10:13:50;;;;;;;2.70;2.40;;;;;;;21.20;100.00;98229.31;5090863;28;20200;-78
2023/07/25 10:16:18;;;;;;;2.38;2.17;;;;;;;21.05;100.00;98227.84;5093319;28;20670;-77
2023/07/25 10:18:52;;;;;;;2.75;2.40;;;;;;;20.86;100.00;98228.19;5092428;28;20216;-77
2023/07/25 10:21:25;;;;;;;2.83;2.50;;;;;;;20.80;100.00;98234.91;5092476;28;20227;-78
2023/07/25 10:23:57;;;;;;;3.05;2.15;;;;;;;20.77;100.00;98243.69;5092228;28;20272;-77
2023/07/25 10:26:24;;;;;;;3.95;2.30;;;;;;;20.76;100.00;98257.66;5084890;28;20584;-78
2023/07/25 10:28:52;;;;;;;4.47;2.45;;;;;;;20.76;100.00;98253.00;5093575;28;20249;-77
2023/07/25 10:31:23;;;;;;;3.60;2.63;;;;;;;20.78;100.00;98267.09;5089091;28;20230;-77
2023/07/25 10:33:54;;;;;;;5.43;2.60;;;;;;;20.76;100.00;98268.53;5090899;28;20188;-77
2023/07/25 10:36:23;;;;;;;2.40;2.15;;;;;;;20.69;100.00;98265.47;5091859;28;20218;-78
2023/07/25 10:38:50;;;;;;;2.28;2.10;;;;;;;20.61;100.00;98269.78;5093293;28;20560;-78
2023/07/25 10:41:17;;;;;;;3.25;2.58;;;;;;;20.59;100.00;98267.38;5093033;28;20234;-77
2023/07/25 10:43:48;;;;;;;2.40;2.20;;;;;;;20.49;100.00;98259.50;5093141;28;20207;-77
2023/07/25 10:46:17;;;;;;;2.40;2.20;;;;;;;20.47;100.00;98253.59;5093291;28;20257;-79
2023/07/25 10:48:54;;;;;;;2.60;2.40;;;;;;;20.47;100.00;98241.91;5093524;28;20200;-79
2023/07/25 10:51:21;;;;;;;2.58;2.38;;;;;;;20.41;100.00;98243.97;5086765;28;20550;-79
2023/07/25 10:54:09;;;;;;;3.28;2.67;;;;;;;20.33;100.00;98238.53;5092244;28;20198;-77
2023/07/25 10:56:37;;;;;;;3.40;2.83;;;;;;;20.29;100.00;98232.91;5091605;28;20195;-77
2023/07/25 10:59:06;;;;;;;3.90;2.90;;;;;;;20.13;100.00;98221.66;5091982;28;20194;-78
2023/07/25 11:01:36;;;;;;;3.50;3.20;;;;;;;19.99;100.00;98217.44;5093021;28;20239;-78
2023/07/25 11:04:24;;;;;;;4.47;3.28;;;;;;;19.95;100.00;98214.56;5092837;28;20217;-77
2023/07/25 11:06:56;;;;;;;4.93;2.97;;;;;;;19.91;100.00;98224.47;5078348;28;20227;-78
2023/07/25 11:09:24;;;;;;;3.03;2.70;;;;;;;19.90;100.00;98232.91;5070887;28;20199;-77
2023/07/25 11:11:52;;;;;;;3.17;2.70;;;;;;;19.90;100.00;98233.72;5055363;28;20203;-78
2023/07/25 11:14:20;;;;;;;4.13;2.77;;;;;;;19.96;100.00;98224.31;5069928;28;20195;-77
2023/07/25 11:16:50;;;;;;;3.17;2.93;;;;;;;19.99;100.00;98215.53;5055441;28;20650;-78
2023/07/25 11:19:17;;;;;;;3.50;3.10;;;;;;;20.07;100.00;98213.94;5066845;28;20222;-77
2023/07/25 11:21:44;;;;;;;2.90;2.70;;;;;;;20.17;100.00;98195.41;5071182;28;20755;-78
2023/07/25 11:24:11;;;;;;;3.50;2.70;;;;;;;20.27;100.00;98163.59;5069382;28;20709;-77
2023/07/25 11:26:39;;;;;;;4.20;3.23;;;;;;;20.65;100.00;98151.03;5056733;28;20243;-76